sensor_id;sensor_type;location;lat;lon;timestamp;temperature;humidity
4312;DHT22;2169;49.086;9.284;2023-02-28T00:00:17;0.50;50.70
4312;DHT22;2169;49.086;9.284;2023-02-28T00:02:44;0.50;50.80
4312;DHT22;2169;49.086;9.284;2023-02-28T00:05:17;0.50;50.90
4312;DHT22;2169;49.086;9.284;2023-02-28T00:07:44;0.50;51.00
4312;DHT22;2169;49.086;9.284;2023-02-28T00:10:15;0.50;51.00
4312;DHT22;2169;49.086;9.284;2023-02-28T00:12:44;0.40;51.00
4312;DHT22;2169;49.086;9.284;2023-02-28T00:15:11;0.40;51.10
4312;DHT22;2169;49.086;9.284;2023-02-28T00:17:38;0.40;51.10
4312;DHT22;2169;49.086;9.284;2023-02-28T00:20:06;0.40;51.30
4312;DHT22;2169;49.086;9.284;2023-02-28T00:22:37;0.40;51.30
4312;DHT22;2169;49.086;9.284;2023-02-28T00:25:05;0.30;51.30
4312;DHT22;2169;49.086;9.284;2023-02-28T00:27:33;0.30;51.40
4312;DHT22;2169;49.086;9.284;2023-02-28T00:30:00;0.30;51.50
4312;DHT22;2169;49.086;9.284;2023-02-28T00:32:27;0.30;51.60
4312;DHT22;2169;49.086;9.284;2023-02-28T00:34:54;0.30;51.60
4312;DHT22;2169;49.086;9.284;2023-02-28T00:37:20;0.30;51.60
4312;DHT22;2169;49.086;9.284;2023-02-28T00:39:49;0.30;51.70
4312;DHT22;2169;49.086;9.284;2023-02-28T00:42:15;0.30;51.70
4312;DHT22;2169;49.086;9.284;2023-02-28T00:44:42;0.30;51.80
4312;DHT22;2169;49.086;9.284;2023-02-28T00:47:09;0.20;51.80
4312;DHT22;2169;49.086;9.284;2023-02-28T00:49:36;0.20;51.80
4312;DHT22;2169;49.086;9.284;2023-02-28T00:52:03;0.20;51.90
4312;DHT22;2169;49.086;9.284;2023-02-28T00:54:30;0.20;52.00
4312;DHT22;2169;49.086;9.284;2023-02-28T00:56:58;0.20;52.10
4312;DHT22;2169;49.086;9.284;2023-02-28T00:59:25;0.20;52.20
4312;DHT22;2169;49.086;9.284;2023-02-28T01:01:51;0.10;52.20
4312;DHT22;2169;49.086;9.284;2023-02-28T01:04:18;0.10;52.20
4312;DHT22;2169;49.086;9.284;2023-02-28T01:06:45;0.10;52.30
4312;DHT22;2169;49.086;9.284;2023-02-28T01:09:12;0.10;52.30
4312;DHT22;2169;49.086;9.284;2023-02-28T01:11:38;0.10;52.40
4312;DHT22;2169;49.086;9.284;2023-02-28T01:14:08;0.10;52.40
4312;DHT22;2169;49.086;9.284;2023-02-28T01:16:35;0.10;52.40
4312;DHT22;2169;49.086;9.284;2023-02-28T01:19:01;0.10;52.50
4312;DHT22;2169;49.086;9.284;2023-02-28T01:21:28;0.00;52.50
4312;DHT22;2169;49.086;9.284;2023-02-28T01:23:56;0.00;52.60
4312;DHT22;2169;49.086;9.284;2023-02-28T01:26:23;0.00;52.60
4312;DHT22;2169;49.086;9.284;2023-02-28T01:28:52;0.00;52.70
4312;DHT22;2169;49.086;9.284;2023-02-28T01:31:21;0.00;52.80
4312;DHT22;2169;49.086;9.284;2023-02-28T01:33:48;0.00;52.90
4312;DHT22;2169;49.086;9.284;2023-02-28T01:36:17;-0.10;52.80
4312;DHT22;2169;49.086;9.284;2023-02-28T01:38:45;-0.10;52.90
4312;DHT22;2169;49.086;9.284;2023-02-28T01:41:16;-0.10;53.00
4312;DHT22;2169;49.086;9.284;2023-02-28T01:43:55;-0.10;53.00
4312;DHT22;2169;49.086;9.284;2023-02-28T01:46:23;-0.10;53.10
4312;DHT22;2169;49.086;9.284;2023-02-28T01:48:53;-0.10;53.20
4312;DHT22;2169;49.086;9.284;2023-02-28T01:51:22;-0.20;53.20
4312;DHT22;2169;49.086;9.284;2023-02-28T01:53:56;-0.20;53.30
4312;DHT22;2169;49.086;9.284;2023-02-28T01:56:26;-0.20;53.30
4312;DHT22;2169;49.086;9.284;2023-02-28T01:58:54;-0.20;53.40
4312;DHT22;2169;49.086;9.284;2023-02-28T02:01:23;-0.20;53.50
4312;DHT22;2169;49.086;9.284;2023-02-28T02:03:54;-0.30;53.50
4312;DHT22;2169;49.086;9.284;2023-02-28T02:06:21;-0.30;53.60
4312;DHT22;2169;49.086;9.284;2023-02-28T02:08:48;-0.30;53.60
4312;DHT22;2169;49.086;9.284;2023-02-28T02:11:17;-0.30;53.60
4312;DHT22;2169;49.086;9.284;2023-02-28T02:14:10;-0.30;53.70
4312;DHT22;2169;49.086;9.284;2023-02-28T02:16:50;-0.30;53.70
4312;DHT22;2169;49.086;9.284;2023-02-28T02:22:33;-0.30;53.80
4312;DHT22;2169;49.086;9.284;2023-02-28T02:25:24;-0.40;53.90
4312;DHT22;2169;49.086;9.284;2023-02-28T02:31:00;-0.40;54.10
4312;DHT22;2169;49.086;9.284;2023-02-28T02:36:47;-0.50;54.40
4312;DHT22;2169;49.086;9.284;2023-02-28T02:39:21;-0.50;54.40
4312;DHT22;2169;49.086;9.284;2023-02-28T02:41:52;-0.50;54.40
4312;DHT22;2169;49.086;9.284;2023-02-28T02:44:22;-0.50;54.50
4312;DHT22;2169;49.086;9.284;2023-02-28T02:46:53;-0.50;54.50
4312;DHT22;2169;49.086;9.284;2023-02-28T02:49:23;-0.50;54.70
4312;DHT22;2169;49.086;9.284;2023-02-28T02:51:53;-0.60;54.60
4312;DHT22;2169;49.086;9.284;2023-02-28T02:54:23;-0.60;54.70
4312;DHT22;2169;49.086;9.284;2023-02-28T02:56:56;-0.60;54.80
4312;DHT22;2169;49.086;9.284;2023-02-28T02:59:24;-0.60;54.80
4312;DHT22;2169;49.086;9.284;2023-02-28T03:01:53;-0.60;54.80
4312;DHT22;2169;49.086;9.284;2023-02-28T03:04:22;-0.60;54.80
4312;DHT22;2169;49.086;9.284;2023-02-28T03:06:52;-0.60;54.90
4312;DHT22;2169;49.086;9.284;2023-02-28T03:09:20;-0.60;55.00
4312;DHT22;2169;49.086;9.284;2023-02-28T03:11:48;-0.60;55.00
4312;DHT22;2169;49.086;9.284;2023-02-28T03:14:26;-0.60;55.10
4312;DHT22;2169;49.086;9.284;2023-02-28T03:17:10;-0.60;55.20
4312;DHT22;2169;49.086;9.284;2023-02-28T03:19:56;-0.60;55.20
4312;DHT22;2169;49.086;9.284;2023-02-28T03:22:45;-0.60;55.20
4312;DHT22;2169;49.086;9.284;2023-02-28T03:25:20;-0.60;55.30
4312;DHT22;2169;49.086;9.284;2023-02-28T03:27:58;-0.60;55.30
4312;DHT22;2169;49.086;9.284;2023-02-28T03:30:29;-0.60;55.30
4312;DHT22;2169;49.086;9.284;2023-02-28T03:33:02;-0.60;55.30
4312;DHT22;2169;49.086;9.284;2023-02-28T03:35:34;-0.60;55.40
4312;DHT22;2169;49.086;9.284;2023-02-28T03:38:06;-0.60;55.50
4312;DHT22;2169;49.086;9.284;2023-02-28T03:40:37;-0.60;55.50
4312;DHT22;2169;49.086;9.284;2023-02-28T03:43:10;-0.60;55.50
4312;DHT22;2169;49.086;9.284;2023-02-28T03:45:39;-0.60;55.60
4312;DHT22;2169;49.086;9.284;2023-02-28T03:48:13;-0.60;55.60
4312;DHT22;2169;49.086;9.284;2023-02-28T03:50:43;-0.60;55.60
4312;DHT22;2169;49.086;9.284;2023-02-28T03:53:15;-0.60;55.60
4312;DHT22;2169;49.086;9.284;2023-02-28T03:55:45;-0.60;55.70
4312;DHT22;2169;49.086;9.284;2023-02-28T03:58:20;-0.60;55.70
4312;DHT22;2169;49.086;9.284;2023-02-28T04:00:50;-0.60;55.70
4312;DHT22;2169;49.086;9.284;2023-02-28T04:03:19;-0.60;55.80
4312;DHT22;2169;49.086;9.284;2023-02-28T04:05:51;-0.60;55.80
4312;DHT22;2169;49.086;9.284;2023-02-28T04:08:20;-0.60;55.80
4312;DHT22;2169;49.086;9.284;2023-02-28T04:10:52;-0.60;55.90
4312;DHT22;2169;49.086;9.284;2023-02-28T04:13:19;-0.60;55.90
4312;DHT22;2169;49.086;9.284;2023-02-28T04:15:46;-0.60;55.90
4312;DHT22;2169;49.086;9.284;2023-02-28T04:18:13;-0.60;56.00
4312;DHT22;2169;49.086;9.284;2023-02-28T04:20:39;-0.60;56.10
4312;DHT22;2169;49.086;9.284;2023-02-28T04:23:06;-0.60;56.10
4312;DHT22;2169;49.086;9.284;2023-02-28T04:25:34;-0.50;56.20
4312;DHT22;2169;49.086;9.284;2023-02-28T04:28:01;-0.50;56.20
4312;DHT22;2169;49.086;9.284;2023-02-28T04:30:28;-0.50;56.20
4312;DHT22;2169;49.086;9.284;2023-02-28T04:32:55;-0.50;56.20
4312;DHT22;2169;49.086;9.284;2023-02-28T04:35:21;-0.50;56.20
4312;DHT22;2169;49.086;9.284;2023-02-28T04:37:48;-0.50;56.20
4312;DHT22;2169;49.086;9.284;2023-02-28T04:40:15;-0.50;56.20
4312;DHT22;2169;49.086;9.284;2023-02-28T04:42:43;-0.50;56.20
4312;DHT22;2169;49.086;9.284;2023-02-28T04:45:10;-0.50;56.20
4312;DHT22;2169;49.086;9.284;2023-02-28T04:47:37;-0.50;56.20
4312;DHT22;2169;49.086;9.284;2023-02-28T04:50:04;-0.50;56.20
4312;DHT22;2169;49.086;9.284;2023-02-28T04:52:31;-0.40;56.30
4312;DHT22;2169;49.086;9.284;2023-02-28T04:54:58;-0.40;56.20
4312;DHT22;2169;49.086;9.284;2023-02-28T04:57:25;-0.40;56.20
4312;DHT22;2169;49.086;9.284;2023-02-28T04:59:53;-0.40;56.20
4312;DHT22;2169;49.086;9.284;2023-02-28T05:02:20;-0.40;56.80
4312;DHT22;2169;49.086;9.284;2023-02-28T05:04:46;-0.40;56.20
4312;DHT22;2169;49.086;9.284;2023-02-28T05:07:13;-0.40;56.20
4312;DHT22;2169;49.086;9.284;2023-02-28T05:09:40;-0.40;56.10
4312;DHT22;2169;49.086;9.284;2023-02-28T05:12:07;-0.40;56.10
4312;DHT22;2169;49.086;9.284;2023-02-28T05:14:35;-0.40;56.20
4312;DHT22;2169;49.086;9.284;2023-02-28T05:17:03;-0.40;56.20
4312;DHT22;2169;49.086;9.284;2023-02-28T05:19:30;-0.40;56.20
4312;DHT22;2169;49.086;9.284;2023-02-28T05:21:56;-0.40;56.20
4312;DHT22;2169;49.086;9.284;2023-02-28T05:24:23;-0.40;56.20
4312;DHT22;2169;49.086;9.284;2023-02-28T05:26:51;-0.40;56.20
4312;DHT22;2169;49.086;9.284;2023-02-28T05:29:18;-0.40;56.20
4312;DHT22;2169;49.086;9.284;2023-02-28T05:31:45;-0.40;56.20
4312;DHT22;2169;49.086;9.284;2023-02-28T05:34:13;-0.40;56.30
4312;DHT22;2169;49.086;9.284;2023-02-28T05:36:41;-0.40;56.30
4312;DHT22;2169;49.086;9.284;2023-02-28T05:39:08;-0.30;56.40
4312;DHT22;2169;49.086;9.284;2023-02-28T05:41:39;-0.30;56.30
4312;DHT22;2169;49.086;9.284;2023-02-28T05:44:05;-0.30;56.30
4312;DHT22;2169;49.086;9.284;2023-02-28T05:46:32;-0.30;56.30
4312;DHT22;2169;49.086;9.284;2023-02-28T05:48:59;-0.30;56.30
4312;DHT22;2169;49.086;9.284;2023-02-28T05:51:27;-0.30;56.30
4312;DHT22;2169;49.086;9.284;2023-02-28T05:53:54;-0.30;56.30
4312;DHT22;2169;49.086;9.284;2023-02-28T05:56:24;-0.30;56.30
4312;DHT22;2169;49.086;9.284;2023-02-28T05:58:51;-0.30;56.30
4312;DHT22;2169;49.086;9.284;2023-02-28T06:01:24;-0.30;56.30
4312;DHT22;2169;49.086;9.284;2023-02-28T06:03:51;-0.30;56.30
4312;DHT22;2169;49.086;9.284;2023-02-28T06:06:18;-0.30;56.30
4312;DHT22;2169;49.086;9.284;2023-02-28T06:08:46;-0.30;56.30
4312;DHT22;2169;49.086;9.284;2023-02-28T06:11:12;-0.30;56.30
4312;DHT22;2169;49.086;9.284;2023-02-28T06:13:39;-0.30;56.30
4312;DHT22;2169;49.086;9.284;2023-02-28T06:16:07;-0.30;56.30
4312;DHT22;2169;49.086;9.284;2023-02-28T06:18:34;-0.30;56.30
4312;DHT22;2169;49.086;9.284;2023-02-28T06:21:01;-0.30;56.30
4312;DHT22;2169;49.086;9.284;2023-02-28T06:23:28;-0.30;56.40
4312;DHT22;2169;49.086;9.284;2023-02-28T06:25:56;-0.30;56.40
4312;DHT22;2169;49.086;9.284;2023-02-28T06:28:24;-0.30;56.40
4312;DHT22;2169;49.086;9.284;2023-02-28T06:30:51;-0.30;56.40
4312;DHT22;2169;49.086;9.284;2023-02-28T06:33:18;-0.30;56.40
4312;DHT22;2169;49.086;9.284;2023-02-28T06:35:46;-0.30;56.50
4312;DHT22;2169;49.086;9.284;2023-02-28T06:38:12;-0.30;56.40
4312;DHT22;2169;49.086;9.284;2023-02-28T06:40:39;-0.40;56.40
4312;DHT22;2169;49.086;9.284;2023-02-28T06:43:07;-0.40;56.40
4312;DHT22;2169;49.086;9.284;2023-02-28T06:45:34;-0.40;56.40
4312;DHT22;2169;49.086;9.284;2023-02-28T06:48:01;-0.40;56.40
4312;DHT22;2169;49.086;9.284;2023-02-28T06:50:27;-0.40;56.50
4312;DHT22;2169;49.086;9.284;2023-02-28T06:52:56;-0.40;56.50
4312;DHT22;2169;49.086;9.284;2023-02-28T06:55:23;-0.40;56.50
4312;DHT22;2169;49.086;9.284;2023-02-28T06:57:49;-0.40;56.50
4312;DHT22;2169;49.086;9.284;2023-02-28T07:00:18;-0.40;56.50
4312;DHT22;2169;49.086;9.284;2023-02-28T07:02:45;-0.40;57.10
4312;DHT22;2169;49.086;9.284;2023-02-28T07:05:12;-0.40;56.60
4312;DHT22;2169;49.086;9.284;2023-02-28T07:07:39;-0.40;56.60
4312;DHT22;2169;49.086;9.284;2023-02-28T07:10:10;-0.40;56.60
4312;DHT22;2169;49.086;9.284;2023-02-28T07:12:38;-0.40;56.50
4312;DHT22;2169;49.086;9.284;2023-02-28T07:15:05;-0.40;56.60
4312;DHT22;2169;49.086;9.284;2023-02-28T07:17:34;-0.40;56.60
4312;DHT22;2169;49.086;9.284;2023-02-28T07:20:00;-0.30;56.60
4312;DHT22;2169;49.086;9.284;2023-02-28T07:22:29;-0.30;56.60
4312;DHT22;2169;49.086;9.284;2023-02-28T07:24:56;-0.30;56.70
4312;DHT22;2169;49.086;9.284;2023-02-28T07:27:23;-0.30;56.70
4312;DHT22;2169;49.086;9.284;2023-02-28T07:29:51;-0.30;56.70
4312;DHT22;2169;49.086;9.284;2023-02-28T07:32:18;-0.30;56.70
4312;DHT22;2169;49.086;9.284;2023-02-28T07:34:46;-0.30;56.70
4312;DHT22;2169;49.086;9.284;2023-02-28T07:37:14;-0.30;56.70
4312;DHT22;2169;49.086;9.284;2023-02-28T07:39:40;-0.20;56.80
4312;DHT22;2169;49.086;9.284;2023-02-28T07:42:08;-0.20;56.80
4312;DHT22;2169;49.086;9.284;2023-02-28T07:44:37;-0.20;56.80
4312;DHT22;2169;49.086;9.284;2023-02-28T07:47:06;-0.20;56.80
4312;DHT22;2169;49.086;9.284;2023-02-28T07:49:33;-0.10;56.90
4312;DHT22;2169;49.086;9.284;2023-02-28T07:52:02;-0.10;56.80
4312;DHT22;2169;49.086;9.284;2023-02-28T07:54:29;-0.10;56.80
4312;DHT22;2169;49.086;9.284;2023-02-28T07:56:56;-0.10;56.80
4312;DHT22;2169;49.086;9.284;2023-02-28T07:59:23;0.00;56.90
4312;DHT22;2169;49.086;9.284;2023-02-28T08:01:50;0.00;56.90
4312;DHT22;2169;49.086;9.284;2023-02-28T08:04:17;0.00;56.80
4312;DHT22;2169;49.086;9.284;2023-02-28T08:06:43;0.10;56.90
4312;DHT22;2169;49.086;9.284;2023-02-28T08:09:11;0.10;56.90
4312;DHT22;2169;49.086;9.284;2023-02-28T08:11:38;0.10;56.90
4312;DHT22;2169;49.086;9.284;2023-02-28T08:14:05;0.10;56.90
4312;DHT22;2169;49.086;9.284;2023-02-28T08:16:32;0.20;56.90
4312;DHT22;2169;49.086;9.284;2023-02-28T08:18:58;0.20;56.90
4312;DHT22;2169;49.086;9.284;2023-02-28T08:21:25;0.20;56.90
4312;DHT22;2169;49.086;9.284;2023-02-28T08:23:52;0.30;57.00
4312;DHT22;2169;49.086;9.284;2023-02-28T08:26:20;0.30;56.90
4312;DHT22;2169;49.086;9.284;2023-02-28T08:28:47;0.40;57.00
4312;DHT22;2169;49.086;9.284;2023-02-28T08:31:15;0.40;57.00
4312;DHT22;2169;49.086;9.284;2023-02-28T08:33:43;0.50;57.10
4312;DHT22;2169;49.086;9.284;2023-02-28T08:36:11;0.50;57.10
4312;DHT22;2169;49.086;9.284;2023-02-28T08:38:38;0.60;57.20
4312;DHT22;2169;49.086;9.284;2023-02-28T08:41:07;0.60;57.20
4312;DHT22;2169;49.086;9.284;2023-02-28T08:43:36;0.70;57.20
4312;DHT22;2169;49.086;9.284;2023-02-28T08:46:03;0.70;57.10
4312;DHT22;2169;49.086;9.284;2023-02-28T08:48:31;0.80;57.10
4312;DHT22;2169;49.086;9.284;2023-02-28T08:51:00;0.80;57.00
4312;DHT22;2169;49.086;9.284;2023-02-28T08:53:27;0.90;57.10
4312;DHT22;2169;49.086;9.284;2023-02-28T08:55:58;1.00;57.20
4312;DHT22;2169;49.086;9.284;2023-02-28T08:58:26;1.10;57.30
4312;DHT22;2169;49.086;9.284;2023-02-28T09:00:55;1.20;57.30
4312;DHT22;2169;49.086;9.284;2023-02-28T09:03:22;1.30;57.30
4312;DHT22;2169;49.086;9.284;2023-02-28T09:05:57;1.40;57.20
4312;DHT22;2169;49.086;9.284;2023-02-28T09:08:25;1.50;57.10
4312;DHT22;2169;49.086;9.284;2023-02-28T09:10:52;1.50;57.00
4312;DHT22;2169;49.086;9.284;2023-02-28T09:13:20;1.60;57.00
4312;DHT22;2169;49.086;9.284;2023-02-28T09:15:47;1.70;57.00
4312;DHT22;2169;49.086;9.284;2023-02-28T09:18:15;1.80;57.00
4312;DHT22;2169;49.086;9.284;2023-02-28T09:20:42;1.90;57.00
4312;DHT22;2169;49.086;9.284;2023-02-28T09:23:10;2.00;57.00
4312;DHT22;2169;49.086;9.284;2023-02-28T09:25:44;2.20;57.00
4312;DHT22;2169;49.086;9.284;2023-02-28T09:28:11;2.20;56.70
4312;DHT22;2169;49.086;9.284;2023-02-28T09:30:38;2.30;56.40
4312;DHT22;2169;49.086;9.284;2023-02-28T09:33:04;2.40;56.50
4312;DHT22;2169;49.086;9.284;2023-02-28T09:35:32;2.50;56.40
4312;DHT22;2169;49.086;9.284;2023-02-28T09:37:59;2.60;56.20
4312;DHT22;2169;49.086;9.284;2023-02-28T09:40:28;2.70;56.10
4312;DHT22;2169;49.086;9.284;2023-02-28T09:42:57;2.80;56.00
4312;DHT22;2169;49.086;9.284;2023-02-28T09:45:28;2.90;55.90
4312;DHT22;2169;49.086;9.284;2023-02-28T09:47:59;3.00;55.80
4312;DHT22;2169;49.086;9.284;2023-02-28T09:50:32;3.00;55.80
4312;DHT22;2169;49.086;9.284;2023-02-28T09:53:06;3.10;55.70
4312;DHT22;2169;49.086;9.284;2023-02-28T09:55:40;3.10;55.50
4312;DHT22;2169;49.086;9.284;2023-02-28T09:58:16;3.10;55.30
4312;DHT22;2169;49.086;9.284;2023-02-28T10:00:46;3.20;55.30
4312;DHT22;2169;49.086;9.284;2023-02-28T10:03:29;3.20;55.10
4312;DHT22;2169;49.086;9.284;2023-02-28T10:06:01;3.20;54.70
4312;DHT22;2169;49.086;9.284;2023-02-28T10:08:36;3.20;54.60
4312;DHT22;2169;49.086;9.284;2023-02-28T10:11:09;3.30;54.60
4312;DHT22;2169;49.086;9.284;2023-02-28T10:13:48;3.30;54.50
4312;DHT22;2169;49.086;9.284;2023-02-28T10:16:20;3.30;54.40
4312;DHT22;2169;49.086;9.284;2023-02-28T10:18:50;3.40;54.30
4312;DHT22;2169;49.086;9.284;2023-02-28T10:21:21;3.40;54.80
4312;DHT22;2169;49.086;9.284;2023-02-28T10:23:58;3.40;54.10
4312;DHT22;2169;49.086;9.284;2023-02-28T10:26:27;3.50;54.00
4312;DHT22;2169;49.086;9.284;2023-02-28T10:28:55;3.50;53.90
4312;DHT22;2169;49.086;9.284;2023-02-28T10:31:22;3.50;53.90
4312;DHT22;2169;49.086;9.284;2023-02-28T10:33:48;3.50;53.80
4312;DHT22;2169;49.086;9.284;2023-02-28T10:36:17;3.60;53.80
4312;DHT22;2169;49.086;9.284;2023-02-28T10:38:45;3.60;53.60
4312;DHT22;2169;49.086;9.284;2023-02-28T10:41:15;3.60;53.40
4312;DHT22;2169;49.086;9.284;2023-02-28T10:43:43;3.70;53.40
4312;DHT22;2169;49.086;9.284;2023-02-28T10:46:15;3.70;53.20
4312;DHT22;2169;49.086;9.284;2023-02-28T10:49:00;3.70;52.90
4312;DHT22;2169;49.086;9.284;2023-02-28T10:51:35;3.70;52.50
4312;DHT22;2169;49.086;9.284;2023-02-28T10:54:03;3.80;52.60
4312;DHT22;2169;49.086;9.284;2023-02-28T10:56:31;3.90;52.60
4312;DHT22;2169;49.086;9.284;2023-02-28T10:59:00;3.90;52.20
4312;DHT22;2169;49.086;9.284;2023-02-28T11:01:36;4.00;52.10
4312;DHT22;2169;49.086;9.284;2023-02-28T11:04:04;4.10;52.10
4312;DHT22;2169;49.086;9.284;2023-02-28T11:06:42;4.10;52.00
4312;DHT22;2169;49.086;9.284;2023-02-28T11:09:18;4.20;51.90
4312;DHT22;2169;49.086;9.284;2023-02-28T11:11:48;4.20;51.60
4312;DHT22;2169;49.086;9.284;2023-02-28T11:14:20;4.30;51.50
4312;DHT22;2169;49.086;9.284;2023-02-28T11:16:48;4.30;51.50
4312;DHT22;2169;49.086;9.284;2023-02-28T11:19:19;4.30;51.40
4312;DHT22;2169;49.086;9.284;2023-02-28T11:21:52;4.40;51.30
4312;DHT22;2169;49.086;9.284;2023-02-28T11:24:23;4.40;51.20
4312;DHT22;2169;49.086;9.284;2023-02-28T11:26:52;4.40;51.20
4312;DHT22;2169;49.086;9.284;2023-02-28T11:29:22;4.50;51.00
4312;DHT22;2169;49.086;9.284;2023-02-28T11:32:10;4.50;50.90
4312;DHT22;2169;49.086;9.284;2023-02-28T11:34:38;4.60;51.00
4312;DHT22;2169;49.086;9.284;2023-02-28T11:37:11;4.60;50.80
4312;DHT22;2169;49.086;9.284;2023-02-28T11:39:38;4.60;50.60
4312;DHT22;2169;49.086;9.284;2023-02-28T11:42:23;4.70;50.40
4312;DHT22;2169;49.086;9.284;2023-02-28T11:45:11;4.70;50.20
4312;DHT22;2169;49.086;9.284;2023-02-28T11:47:47;4.70;50.10
4312;DHT22;2169;49.086;9.284;2023-02-28T11:50:26;4.80;50.10
4312;DHT22;2169;49.086;9.284;2023-02-28T11:53:01;4.80;50.00
4312;DHT22;2169;49.086;9.284;2023-02-28T11:55:34;4.80;50.00
4312;DHT22;2169;49.086;9.284;2023-02-28T11:58:18;4.80;50.10
4312;DHT22;2169;49.086;9.284;2023-02-28T12:01:08;4.90;50.10
4312;DHT22;2169;49.086;9.284;2023-02-28T12:03:44;4.90;50.00
4312;DHT22;2169;49.086;9.284;2023-02-28T12:06:20;5.00;50.10
4312;DHT22;2169;49.086;9.284;2023-02-28T12:08:59;5.00;50.00
4312;DHT22;2169;49.086;9.284;2023-02-28T12:11:45;5.10;49.90
4312;DHT22;2169;49.086;9.284;2023-02-28T12:14:30;5.20;49.70
4312;DHT22;2169;49.086;9.284;2023-02-28T12:17:06;5.20;49.70
4312;DHT22;2169;49.086;9.284;2023-02-28T12:19:44;5.30;49.50
4312;DHT22;2169;49.086;9.284;2023-02-28T12:22:22;5.30;49.40
4312;DHT22;2169;49.086;9.284;2023-02-28T12:27:56;5.30;49.30
4312;DHT22;2169;49.086;9.284;2023-02-28T12:30:26;5.40;49.50
4312;DHT22;2169;49.086;9.284;2023-02-28T12:32:57;5.40;49.30
4312;DHT22;2169;49.086;9.284;2023-02-28T12:35:33;5.50;49.00
4312;DHT22;2169;49.086;9.284;2023-02-28T12:38:05;5.50;48.90
4312;DHT22;2169;49.086;9.284;2023-02-28T12:40:42;5.50;48.90
4312;DHT22;2169;49.086;9.284;2023-02-28T12:43:12;5.50;48.90
4312;DHT22;2169;49.086;9.284;2023-02-28T12:45:45;5.60;49.10
4312;DHT22;2169;49.086;9.284;2023-02-28T12:48:17;5.60;49.00
4312;DHT22;2169;49.086;9.284;2023-02-28T12:50:46;5.60;48.80
4312;DHT22;2169;49.086;9.284;2023-02-28T12:53:19;5.60;48.80
4312;DHT22;2169;49.086;9.284;2023-02-28T12:55:50;5.70;48.80
4312;DHT22;2169;49.086;9.284;2023-02-28T12:58:26;5.70;48.80
4312;DHT22;2169;49.086;9.284;2023-02-28T13:01:14;5.80;48.60
4312;DHT22;2169;49.086;9.284;2023-02-28T13:06:57;5.70;47.90
4312;DHT22;2169;49.086;9.284;2023-02-28T13:09:26;5.70;48.00
4312;DHT22;2169;49.086;9.284;2023-02-28T13:11:55;5.70;48.00
4312;DHT22;2169;49.086;9.284;2023-02-28T13:14:25;5.80;48.10
4312;DHT22;2169;49.086;9.284;2023-02-28T13:17:02;5.70;48.00
4312;DHT22;2169;49.086;9.284;2023-02-28T13:19:37;5.80;48.10
4312;DHT22;2169;49.086;9.284;2023-02-28T13:22:05;5.80;47.90
4312;DHT22;2169;49.086;9.284;2023-02-28T13:24:47;5.80;48.00
4312;DHT22;2169;49.086;9.284;2023-02-28T13:27:34;5.80;47.90
4312;DHT22;2169;49.086;9.284;2023-02-28T13:33:27;5.90;48.00
4312;DHT22;2169;49.086;9.284;2023-02-28T13:36:26;5.90;47.90
4312;DHT22;2169;49.086;9.284;2023-02-28T13:38:55;5.90;47.80
4312;DHT22;2169;49.086;9.284;2023-02-28T13:41:43;5.90;47.80
4312;DHT22;2169;49.086;9.284;2023-02-28T13:44:11;5.90;47.80
4312;DHT22;2169;49.086;9.284;2023-02-28T13:49:40;5.90;47.60
4312;DHT22;2169;49.086;9.284;2023-02-28T13:52:12;5.90;47.70
4312;DHT22;2169;49.086;9.284;2023-02-28T13:54:50;5.90;47.70
4312;DHT22;2169;49.086;9.284;2023-02-28T13:57:31;5.90;47.70
4312;DHT22;2169;49.086;9.284;2023-02-28T14:00:13;5.90;47.50
4312;DHT22;2169;49.086;9.284;2023-02-28T14:03:09;5.90;47.60
4312;DHT22;2169;49.086;9.284;2023-02-28T14:05:41;5.90;47.70
4312;DHT22;2169;49.086;9.284;2023-02-28T14:08:15;5.90;47.60
4312;DHT22;2169;49.086;9.284;2023-02-28T14:10:44;5.90;47.50
4312;DHT22;2169;49.086;9.284;2023-02-28T14:15:57;6.00;47.40
4312;DHT22;2169;49.086;9.284;2023-02-28T14:18:27;6.00;47.20
4312;DHT22;2169;49.086;9.284;2023-02-28T14:21:02;6.00;47.10
4312;DHT22;2169;49.086;9.284;2023-02-28T14:23:52;6.00;47.10
4312;DHT22;2169;49.086;9.284;2023-02-28T14:26:44;6.10;47.30
4312;DHT22;2169;49.086;9.284;2023-02-28T14:32:27;6.10;47.00
4312;DHT22;2169;49.086;9.284;2023-02-28T14:35:03;6.10;47.00
4312;DHT22;2169;49.086;9.284;2023-02-28T14:37:37;6.10;46.80
4312;DHT22;2169;49.086;9.284;2023-02-28T14:40:12;6.10;46.80
4312;DHT22;2169;49.086;9.284;2023-02-28T14:42:47;6.10;46.80
4312;DHT22;2169;49.086;9.284;2023-02-28T14:45:18;6.10;47.00
4312;DHT22;2169;49.086;9.284;2023-02-28T14:47:46;6.10;47.00
4312;DHT22;2169;49.086;9.284;2023-02-28T14:50:18;6.10;46.80
4312;DHT22;2169;49.086;9.284;2023-02-28T14:52:48;6.10;46.80
4312;DHT22;2169;49.086;9.284;2023-02-28T14:55:17;6.10;46.80
4312;DHT22;2169;49.086;9.284;2023-02-28T14:57:52;6.10;46.80
4312;DHT22;2169;49.086;9.284;2023-02-28T15:00:22;6.10;46.90
4312;DHT22;2169;49.086;9.284;2023-02-28T15:02:49;6.10;46.70
4312;DHT22;2169;49.086;9.284;2023-02-28T15:05:22;6.10;46.80
4312;DHT22;2169;49.086;9.284;2023-02-28T15:08:05;6.10;46.80
4312;DHT22;2169;49.086;9.284;2023-02-28T15:10:35;6.20;46.90
4312;DHT22;2169;49.086;9.284;2023-02-28T15:13:05;6.10;46.90
4312;DHT22;2169;49.086;9.284;2023-02-28T15:15:40;6.20;46.90
4312;DHT22;2169;49.086;9.284;2023-02-28T15:18:14;6.10;46.90
4312;DHT22;2169;49.086;9.284;2023-02-28T15:20:42;6.10;46.70
4312;DHT22;2169;49.086;9.284;2023-02-28T15:23:11;6.10;46.80
4312;DHT22;2169;49.086;9.284;2023-02-28T15:25:40;6.10;46.90
4312;DHT22;2169;49.086;9.284;2023-02-28T15:28:15;6.10;46.90
4312;DHT22;2169;49.086;9.284;2023-02-28T15:30:52;6.10;46.90
4312;DHT22;2169;49.086;9.284;2023-02-28T15:33:21;6.10;46.90
4312;DHT22;2169;49.086;9.284;2023-02-28T15:35:49;6.10;46.80
4312;DHT22;2169;49.086;9.284;2023-02-28T15:38:22;6.00;46.80
4312;DHT22;2169;49.086;9.284;2023-02-28T15:40:52;6.00;46.70
4312;DHT22;2169;49.086;9.284;2023-02-28T15:43:26;6.00;46.80
4312;DHT22;2169;49.086;9.284;2023-02-28T15:45:57;6.00;46.70
4312;DHT22;2169;49.086;9.284;2023-02-28T15:48:27;6.00;46.80
4312;DHT22;2169;49.086;9.284;2023-02-28T15:50:56;6.00;46.80
4312;DHT22;2169;49.086;9.284;2023-02-28T15:53:27;6.00;46.90
4312;DHT22;2169;49.086;9.284;2023-02-28T15:55:59;6.00;46.90
4312;DHT22;2169;49.086;9.284;2023-02-28T15:58:26;6.00;46.90
4312;DHT22;2169;49.086;9.284;2023-02-28T16:01:05;6.00;46.90
4312;DHT22;2169;49.086;9.284;2023-02-28T16:03:41;6.00;46.90
4312;DHT22;2169;49.086;9.284;2023-02-28T16:09:06;6.00;46.90
4312;DHT22;2169;49.086;9.284;2023-02-28T16:11:38;6.00;46.90
4312;DHT22;2169;49.086;9.284;2023-02-28T16:14:08;6.00;46.90
4312;DHT22;2169;49.086;9.284;2023-02-28T16:16:43;5.90;46.90
4312;DHT22;2169;49.086;9.284;2023-02-28T16:19:10;5.90;46.80
4312;DHT22;2169;49.086;9.284;2023-02-28T16:21:37;5.90;46.80
4312;DHT22;2169;49.086;9.284;2023-02-28T16:24:06;5.90;46.80
4312;DHT22;2169;49.086;9.284;2023-02-28T16:26:33;5.90;46.80
4312;DHT22;2169;49.086;9.284;2023-02-28T16:29:03;5.90;46.80
4312;DHT22;2169;49.086;9.284;2023-02-28T16:31:37;5.90;46.90
4312;DHT22;2169;49.086;9.284;2023-02-28T16:34:04;5.80;46.80
4312;DHT22;2169;49.086;9.284;2023-02-28T16:36:32;5.80;46.90
4312;DHT22;2169;49.086;9.284;2023-02-28T16:38:58;5.80;46.90
4312;DHT22;2169;49.086;9.284;2023-02-28T16:41:49;5.80;46.90
4312;DHT22;2169;49.086;9.284;2023-02-28T16:47:50;5.80;47.10
4312;DHT22;2169;49.086;9.284;2023-02-28T16:50:19;5.70;47.10
4312;DHT22;2169;49.086;9.284;2023-02-28T16:52:46;5.70;47.20
4312;DHT22;2169;49.086;9.284;2023-02-28T16:55:14;5.70;47.20
4312;DHT22;2169;49.086;9.284;2023-02-28T16:57:43;5.70;47.30
4312;DHT22;2169;49.086;9.284;2023-02-28T17:00:14;5.60;47.30
4312;DHT22;2169;49.086;9.284;2023-02-28T17:02:41;5.60;47.30
4312;DHT22;2169;49.086;9.284;2023-02-28T17:05:10;5.50;47.30
4312;DHT22;2169;49.086;9.284;2023-02-28T17:07:37;5.50;47.40